Time;durP1;ratioP1;P1;durP2;ratioP2;P2;SDS_P1;SDS_P2;PMS_P1;PMS_P2;Temp;Humidity;BMP_temperature;BMP_pressure;BME280_temperature;BME280_humidity;BME280_pressure;Samples;Min_cycle;Max_cycle;Signal;HPM_P1;HPM_P2
2023/09/17 00:01:16;;;;;;;12.90;11.10;;;;;;;;;;5072900;28;20102;-60
2023/09/17 00:03:42;;;;;;;12.68;11.13;;;;;;;;;;5072181;28;20044;-60
2023/09/17 00:06:08;;;;;;;12.60;11.30;;;;;;;;;;5072685;28;20083;-60
2023/09/17 00:08:35;;;;;;;12.65;11.35;;;;;;;;;;5072811;28;20037;-60
2023/09/17 00:11:02;;;;;;;13.90;12.30;;;;;;;;;;5072237;28;20041;-60
2023/09/17 00:13:28;;;;;;;15.35;10.77;;;;;;;;;;5072518;28;20098;-60
2023/09/17 00:15:54;;;;;;;17.05;10.10;;;;;;;;;;5071717;28;20051;-60
2023/09/17 00:18:21;;;;;;;16.20;11.40;;;;;;;;;;5072732;28;20509;-60
2023/09/17 00:20:47;;;;;;;11.73;9.57;;;;;;;;;;5072354;28;20127;-60
2023/09/17 00:23:13;;;;;;;13.60;11.23;;;;;;;;;;5071622;28;20448;-60
2023/09/17 00:25:40;;;;;;;14.45;11.00;;;;;;;;;;5072758;28;20465;-60
2023/09/17 00:28:06;;;;;;;13.82;9.70;;;;;;;;;;5072266;28;20475;-60
2023/09/17 00:30:32;;;;;;;14.13;11.93;;;;;;;;;;5071485;28;20557;-60
2023/09/17 00:32:59;;;;;;;12.90;11.40;;;;;;;;;;5072363;28;20032;-60
2023/09/17 00:35:25;;;;;;;14.57;11.65;;;;;;;;;;5072667;28;20101;-60
2023/09/17 00:37:52;;;;;;;17.52;12.18;;;;;;;;;;5071376;28;20060;-60
2023/09/17 00:40:21;;;;;;;16.55;11.27;;;;;;;;;;5072235;28;20041;-60
2023/09/17 00:42:47;;;;;;;11.70;9.55;;;;;;;;;;5073307;28;20032;-60
2023/09/17 00:45:13;;;;;;;11.25;9.60;;;;;;;;;;5071155;28;20044;-60
2023/09/17 00:47:39;;;;;;;9.75;8.40;;;;;;;;;;5071962;28;20105;-60
2023/09/17 00:50:06;;;;;;;11.85;9.77;;;;;;;;;;5071991;28;20045;-60
2023/09/17 00:52:33;;;;;;;11.48;8.40;;;;;;;;;;5070962;28;20110;-60
2023/09/17 00:55:00;;;;;;;12.85;8.20;;;;;;;;;;5069973;28;20057;-60
2023/09/17 00:57:26;;;;;;;8.25;7.45;;;;;;;;;;5071760;28;20461;-60
2023/09/17 00:59:53;;;;;;;7.90;7.10;;;;;;;;;;5070986;28;20519;-59
2023/09/17 01:02:20;;;;;;;7.57;6.88;;;;;;;;;;5071533;28;20135;-60
2023/09/17 01:04:49;;;;;;;6.75;6.13;;;;;;;;;;5070875;28;20105;-60
2023/09/17 01:07:18;;;;;;;7.22;6.53;;;;;;;;;;5070902;28;20063;-60
2023/09/17 01:09:45;;;;;;;7.50;5.93;;;;;;;;;;5072082;28;20098;-60
2023/09/17 01:12:11;;;;;;;9.50;7.88;;;;;;;;;;5070742;28;20044;-60
2023/09/17 01:14:38;;;;;;;10.30;7.82;;;;;;;;;;5071214;28;20049;-60
2023/09/17 01:17:07;;;;;;;10.15;8.07;;;;;;;;;;5071372;28;20071;-60
2023/09/17 01:19:34;;;;;;;9.82;8.20;;;;;;;;;;5070550;28;20048;-60
2023/09/17 01:22:06;;;;;;;8.70;7.50;;;;;;;;;;5071407;28;20349;-60
2023/09/17 01:24:54;;;;;;;10.50;7.22;;;;;;;;;;5071314;28;20078;-60
2023/09/17 01:27:21;;;;;;;8.02;6.75;;;;;;;;;;5070442;28;20400;-60
2023/09/17 01:29:47;;;;;;;9.45;7.68;;;;;;;;;;5071063;28;20097;-60
2023/09/17 01:32:15;;;;;;;10.00;8.23;;;;;;;;;;5071197;28;20511;-60
2023/09/17 01:34:42;;;;;;;10.80;9.38;;;;;;;;;;5070069;28;20052;-60
2023/09/17 01:37:11;;;;;;;9.43;8.43;;;;;;;;;;5071018;28;20123;-60
2023/09/17 01:39:42;;;;;;;10.13;7.65;;;;;;;;;;5071098;28;20033;-60
2023/09/17 01:42:09;;;;;;;8.85;7.90;;;;;;;;;;5069945;28;20511;-60
2023/09/17 01:44:36;;;;;;;12.57;8.68;;;;;;;;;;5071186;28;20076;-60
2023/09/17 01:47:03;;;;;;;10.88;9.27;;;;;;;;;;5070651;28;20112;-60
2023/09/17 01:49:32;;;;;;;15.10;12.60;;;;;;;;;;5070215;28;20120;-60
2023/09/17 01:51:58;;;;;;;16.48;14.15;;;;;;;;;;5070735;28;20127;-60
2023/09/17 01:54:25;;;;;;;10.45;9.35;;;;;;;;;;5070113;28;20420;-60
2023/09/17 01:56:51;;;;;;;13.77;9.45;;;;;;;;;;5070734;28;20054;-60
2023/09/17 01:59:17;;;;;;;11.15;9.43;;;;;;;;;;5070885;28;20064;-60
2023/09/17 02:01:44;;;;;;;14.25;11.68;;;;;;;;;;5070006;28;20404;-60
2023/09/17 02:04:10;;;;;;;16.33;12.15;;;;;;;;;;5070624;28;20048;-60
2023/09/17 02:06:36;;;;;;;14.35;12.80;;;;;;;;;;5070257;28;20048;-60
2023/09/17 02:09:08;;;;;;;15.70;12.30;;;;;;;;;;5069436;28;20523;-60
2023/09/17 02:11:34;;;;;;;14.70;10.32;;;;;;;;;;5070686;28;20045;-60
2023/09/17 02:14:00;;;;;;;12.43;10.40;;;;;;;;;;5070778;28;20119;-60
2023/09/17 02:16:27;;;;;;;9.68;8.68;;;;;;;;;;5069661;28;20425;-60
2023/09/17 02:18:54;;;;;;;10.15;9.15;;;;;;;;;;5070652;28;20040;-60
2023/09/17 02:21:20;;;;;;;12.07;9.10;;;;;;;;;;5070404;28;20048;-60
2023/09/17 02:23:47;;;;;;;12.73;9.50;;;;;;;;;;5069682;28;20045;-60
2023/09/17 02:26:14;;;;;;;10.55;8.20;;;;;;;;;;5070388;28;20149;-60
2023/09/17 02:28:40;;;;;;;10.80;9.05;;;;;;;;;;5070492;28;20149;-60
2023/09/17 02:31:06;;;;;;;12.68;9.07;;;;;;;;;;5069341;28;20044;-60
2023/09/17 02:33:33;;;;;;;16.05;10.13;;;;;;;;;;5069819;28;20051;-60
2023/09/17 02:36:00;;;;;;;13.00;10.27;;;;;;;;;;5070342;28;20592;-60
2023/09/17 02:38:26;;;;;;;14.73;12.07;;;;;;;;;;5068324;28;20073;-60
2023/09/17 02:40:53;;;;;;;16.65;11.63;;;;;;;;;;5070283;28;20040;-60
2023/09/17 02:43:19;;;;;;;18.77;11.77;;;;;;;;;;5070578;28;20372;-60
2023/09/17 02:45:45;;;;;;;14.90;13.30;;;;;;;;;;5069389;28;20375;-60
2023/09/17 02:48:11;;;;;;;22.77;14.20;;;;;;;;;;5070191;28;20084;-60
2023/09/17 02:50:39;;;;;;;19.42;13.32;;;;;;;;;;5069448;28;20072;-60
2023/09/17 02:53:06;;;;;;;20.75;13.68;;;;;;;;;;5069165;28;20052;-60
2023/09/17 02:55:35;;;;;;;15.52;13.68;;;;;;;;;;5070050;28;20071;-60
2023/09/17 02:58:02;;;;;;;20.88;13.75;;;;;;;;;;5069509;28;20040;-60
2023/09/17 03:00:34;;;;;;;18.90;15.00;;;;;;;;;;5070163;28;20045;-60
2023/09/17 03:03:01;;;;;;;24.38;16.13;;;;;;;;;;5070592;28;20036;-60
2023/09/17 03:05:27;;;;;;;21.55;16.67;;;;;;;;;;5069253;28;20500;-60
2023/09/17 03:07:53;;;;;;;27.85;18.70;;;;;;;;;;5070097;28;20496;-60
2023/09/17 03:10:20;;;;;;;23.48;19.60;;;;;;;;;;5068655;28;20081;-60
2023/09/17 03:12:47;;;;;;;23.10;17.70;;;;;;;;;;5067718;28;20068;-60
2023/09/17 03:15:13;;;;;;;27.08;19.60;;;;;;;;;;5070078;28;20044;-60
2023/09/17 03:17:41;;;;;;;31.52;23.75;;;;;;;;;;5069958;28;20082;-60
2023/09/17 03:20:17;;;;;;;29.92;23.92;;;;;;;;;;5072752;28;20135;-60
2023/09/17 03:22:46;;;;;;;28.90;24.23;;;;;;;;;;5073723;28;20400;-60
2023/09/17 03:25:13;;;;;;;32.08;23.30;;;;;;;;;;5073664;28;20037;-60
2023/09/17 03:27:43;;;;;;;31.20;22.85;;;;;;;;;;5072719;28;20423;-60
2023/09/17 03:30:09;;;;;;;26.40;22.38;;;;;;;;;;5073737;28;20062;-60
2023/09/17 03:32:36;;;;;;;29.23;23.95;;;;;;;;;;5073164;28;20045;-60
2023/09/17 03:35:03;;;;;;;36.40;25.50;;;;;;;;;;5072135;28;20072;-60
2023/09/17 03:37:30;;;;;;;33.42;23.40;;;;;;;;;;5073548;28;20494;-60
2023/09/17 03:40:12;;;;;;;31.60;24.27;;;;;;;;;;5072584;28;20051;-60
2023/09/17 03:42:39;;;;;;;33.70;27.63;;;;;;;;;;5073424;28;20044;-60
2023/09/17 03:45:07;;;;;;;39.47;30.45;;;;;;;;;;5073057;28;20036;-60
2023/09/17 03:47:33;;;;;;;36.70;30.90;;;;;;;;;;5072149;28;20055;-60
2023/09/17 03:50:00;;;;;;;48.58;32.95;;;;;;;;;;5073067;28;20048;-60
2023/09/17 03:52:29;;;;;;;43.25;35.70;;;;;;;;;;5073156;28;20127;-60
2023/09/17 03:54:56;;;;;;;45.75;35.03;;;;;;;;;;5072127;28;20044;-60
2023/09/17 03:57:22;;;;;;;38.45;32.55;;;;;;;;;;5073152;28;20544;-60
2023/09/17 03:59:48;;;;;;;40.78;32.97;;;;;;;;;;5072891;28;20123;-60
2023/09/17 04:02:15;;;;;;;40.60;33.03;;;;;;;;;;5071710;28;20052;-60
2023/09/17 04:04:41;;;;;;;42.50;35.05;;;;;;;;;;5072550;28;20044;-60
2023/09/17 04:07:07;;;;;;;45.10;35.78;;;;;;;;;;5072828;28;20048;-60
2023/09/17 04:09:34;;;;;;;42.05;33.65;;;;;;;;;;5072033;28;20108;-60
2023/09/17 04:12:06;;;;;;;42.58;32.67;;;;;;;;;;5072553;28;20400;-60
2023/09/17 04:14:32;;;;;;;38.10;31.67;;;;;;;;;;5073005;28;20044;-60
2023/09/17 04:17:02;;;;;;;42.83;33.55;;;;;;;;;;5071614;28;20514;-60
2023/09/17 04:19:29;;;;;;;36.53;31.70;;;;;;;;;;5072617;28;20103;-60
2023/09/17 04:21:56;;;;;;;38.75;33.25;;;;;;;;;;5072444;28;20048;-60
2023/09/17 04:24:22;;;;;;;38.97;32.60;;;;;;;;;;5070686;28;20181;-60
2023/09/17 04:26:48;;;;;;;39.47;32.97;;;;;;;;;;5072423;28;20518;-60
2023/09/17 04:29:14;;;;;;;38.92;30.63;;;;;;;;;;5071530;28;20089;-60
2023/09/17 04:31:41;;;;;;;38.25;32.78;;;;;;;;;;5071868;28;20131;-60
2023/09/17 04:34:07;;;;;;;39.03;31.63;;;;;;;;;;5067490;28;20052;-60
2023/09/17 04:36:33;;;;;;;34.78;31.00;;;;;;;;;;5071609;28;20048;-60
2023/09/17 04:38:59;;;;;;;41.78;33.20;;;;;;;;;;5072023;28;20078;-60
2023/09/17 04:41:26;;;;;;;36.55;32.58;;;;;;;;;;5072128;28;20536;-60
2023/09/17 04:43:52;;;;;;;41.78;31.13;;;;;;;;;;5071507;28;20041;-60
2023/09/17 04:46:18;;;;;;;38.15;32.60;;;;;;;;;;5072023;28;20044;-60
2023/09/17 04:48:45;;;;;;;39.67;32.50;;;;;;;;;;5071995;28;20041;-60
2023/09/17 04:51:15;;;;;;;41.47;33.78;;;;;;;;;;5071120;28;20084;-60
2023/09/17 04:53:42;;;;;;;40.58;34.13;;;;;;;;;;5071761;28;20440;-60
2023/09/17 04:56:08;;;;;;;38.72;32.88;;;;;;;;;;5071859;28;20045;-60
2023/09/17 04:58:34;;;;;;;41.92;33.75;;;;;;;;;;5071049;28;20111;-60
2023/09/17 05:01:00;;;;;;;42.38;33.15;;;;;;;;;;5071747;28;20098;-60
2023/09/17 05:03:27;;;;;;;46.65;35.20;;;;;;;;;;5072692;28;20044;-60
2023/09/17 05:05:53;;;;;;;43.20;34.25;;;;;;;;;;5070381;28;20068;-60
2023/09/17 05:08:19;;;;;;;42.85;35.03;;;;;;;;;;5071582;28;20090;-60
2023/09/17 05:10:46;;;;;;;40.45;35.05;;;;;;;;;;5071400;28;20043;-60
2023/09/17 05:13:12;;;;;;;45.85;34.10;;;;;;;;;;5070763;28;20052;-60
2023/09/17 05:15:38;;;;;;;42.03;34.67;;;;;;;;;;5069946;28;20452;-60
2023/09/17 05:18:09;;;;;;;47.65;35.35;;;;;;;;;;5071346;28;20047;-60
2023/09/17 05:20:36;;;;;;;43.78;34.67;;;;;;;;;;5070525;28;20048;-60
2023/09/17 05:23:03;;;;;;;41.55;34.22;;;;;;;;;;5070846;28;20385;-60
2023/09/17 05:25:29;;;;;;;43.78;34.20;;;;;;;;;;5069890;28;20044;-60
2023/09/17 05:27:55;;;;;;;44.90;34.35;;;;;;;;;;5070141;28;20067;-60
2023/09/17 05:30:21;;;;;;;45.08;34.70;;;;;;;;;;5070292;28;20140;-60
2023/09/17 05:32:47;;;;;;;43.20;35.65;;;;;;;;;;5070354;28;20036;-60
2023/09/17 05:35:14;;;;;;;45.42;36.63;;;;;;;;;;5071169;28;20495;-60
2023/09/17 05:37:40;;;;;;;43.80;37.70;;;;;;;;;;5070984;28;20048;-60
2023/09/17 05:40:06;;;;;;;44.72;36.45;;;;;;;;;;5070346;28;20029;-60
2023/09/17 05:42:33;;;;;;;49.90;38.38;;;;;;;;;;5070751;28;19920;-60
2023/09/17 05:44:59;;;;;;;44.25;37.05;;;;;;;;;;5070963;28;20086;-60
2023/09/17 05:47:25;;;;;;;45.03;37.75;;;;;;;;;;5069888;28;20485;-60
2023/09/17 05:49:55;;;;;;;47.70;37.28;;;;;;;;;;5070727;28;20076;-60
2023/09/17 05:52:21;;;;;;;45.65;39.30;;;;;;;;;;5069728;28;20410;-60
2023/09/17 05:54:47;;;;;;;40.53;35.95;;;;;;;;;;5069878;28;20093;-60
2023/09/17 05:57:14;;;;;;;42.70;36.65;;;;;;;;;;5070941;28;20436;-60
2023/09/17 05:59:40;;;;;;;44.85;36.35;;;;;;;;;;5071005;28;20040;-60
2023/09/17 06:02:07;;;;;;;41.15;34.50;;;;;;;;;;5069638;28;20067;-60
2023/09/17 06:04:34;;;;;;;46.92;37.38;;;;;;;;;;5070909;28;20040;-60
2023/09/17 06:07:00;;;;;;;41.50;35.92;;;;;;;;;;5070745;28;20082;-60
2023/09/17 06:09:26;;;;;;;49.50;38.75;;;;;;;;;;5069945;28;20541;-60
2023/09/17 06:11:52;;;;;;;47.10;36.38;;;;;;;;;;5070397;28;20040;-60
2023/09/17 06:14:18;;;;;;;46.08;36.53;;;;;;;;;;5070604;28;20086;-60
2023/09/17 06:16:45;;;;;;;44.25;37.85;;;;;;;;;;5069773;28;20051;-60
2023/09/17 06:19:11;;;;;;;46.65;36.08;;;;;;;;;;5070346;28;20124;-60
2023/09/17 06:21:37;;;;;;;43.08;34.95;;;;;;;;;;5069917;28;20349;-60
2023/09/17 06:24:04;;;;;;;42.80;36.33;;;;;;;;;;5069825;28;20089;-60
2023/09/17 06:26:30;;;;;;;46.33;37.10;;;;;;;;;;5070657;28;20403;-60
2023/09/17 06:28:56;;;;;;;42.13;35.33;;;;;;;;;;5069716;28;20385;-60
2023/09/17 06:31:22;;;;;;;42.15;35.05;;;;;;;;;;5070428;28;20040;-60
2023/09/17 06:33:48;;;;;;;44.17;37.00;;;;;;;;;;5069857;28;20044;-60
2023/09/17 06:36:15;;;;;;;40.50;33.95;;;;;;;;;;5069747;28;20178;-60
2023/09/17 06:38:41;;;;;;;38.90;32.75;;;;;;;;;;5070612;28;20040;-60
2023/09/17 06:41:07;;;;;;;43.05;33.65;;;;;;;;;;5070402;28;20094;-60
2023/09/17 06:43:33;;;;;;;41.08;33.33;;;;;;;;;;5069586;28;20045;-60
2023/09/17 06:45:59;;;;;;;41.15;32.85;;;;;;;;;;5070223;28;20071;-60
2023/09/17 06:48:27;;;;;;;42.17;34.10;;;;;;;;;;5070023;28;20044;-60
2023/09/17 06:50:53;;;;;;;38.17;31.92;;;;;;;;;;5069668;28;20036;-60
2023/09/17 06:53:19;;;;;;;37.53;32.72;;;;;;;;;;5072167;28;20047;-60
2023/09/17 06:55:46;;;;;;;35.72;31.83;;;;;;;;;;5074260;28;20507;-60
2023/09/17 06:58:12;;;;;;;39.45;31.58;;;;;;;;;;5073171;28;20084;-60
2023/09/17 07:00:38;;;;;;;38.88;30.38;;;;;;;;;;5073980;28;20495;-60
2023/09/17 07:03:04;;;;;;;37.97;32.40;;;;;;;;;;5073930;28;20040;-60
2023/09/17 07:05:30;;;;;;;37.47;30.88;;;;;;;;;;5073147;28;20315;-60
2023/09/17 07:07:57;;;;;;;34.92;29.50;;;;;;;;;;5073958;28;20067;-60
2023/09/17 07:10:23;;;;;;;36.38;28.92;;;;;;;;;;5073806;28;20560;-60
2023/09/17 07:12:50;;;;;;;36.80;29.27;;;;;;;;;;5073094;28;20082;-60
2023/09/17 07:15:18;;;;;;;35.60;28.95;;;;;;;;;;5073549;28;20040;-60
2023/09/17 07:17:44;;;;;;;34.65;29.40;;;;;;;;;;5073747;28;20492;-60
2023/09/17 07:20:14;;;;;;;36.33;29.45;;;;;;;;;;5072986;28;20039;-60
2023/09/17 07:22:41;;;;;;;34.25;29.58;;;;;;;;;;5073620;28;20549;-60
2023/09/17 07:25:07;;;;;;;43.15;30.58;;;;;;;;;;5071096;28;20075;-60
2023/09/17 07:27:34;;;;;;;37.47;29.90;;;;;;;;;;5073633;28;20066;-60
2023/09/17 07:30:00;;;;;;;38.17;29.45;;;;;;;;;;5073595;28;20037;-60
2023/09/17 07:32:27;;;;;;;36.15;28.30;;;;;;;;;;5072569;28;20045;-60
2023/09/17 07:34:53;;;;;;;36.53;28.90;;;;;;;;;;5073613;28;20040;-60
2023/09/17 07:37:20;;;;;;;39.85;30.95;;;;;;;;;;5073465;28;20045;-60
2023/09/17 07:39:54;;;;;;;38.65;30.52;;;;;;;;;;5072562;28;20060;-60
2023/09/17 07:42:20;;;;;;;40.20;31.05;;;;;;;;;;5073380;28;20115;-60
2023/09/17 07:44:47;;;;;;;41.80;31.50;;;;;;;;;;5073036;28;20059;-60
2023/09/17 07:47:13;;;;;;;37.47;31.20;;;;;;;;;;5072209;28;20492;-60
2023/09/17 07:49:39;;;;;;;40.42;32.92;;;;;;;;;;5073059;28;20052;-60
2023/09/17 07:52:06;;;;;;;40.50;32.50;;;;;;;;;;5073034;28;20055;-60
2023/09/17 07:54:39;;;;;;;36.95;30.45;;;;;;;;;;5072146;28;20076;-60
2023/09/17 07:57:05;;;;;;;36.20;29.95;;;;;;;;;;5072948;28;20067;-60
2023/09/17 07:59:31;;;;;;;40.63;30.70;;;;;;;;;;5073232;28;20113;-60
2023/09/17 08:01:58;;;;;;;39.88;30.42;;;;;;;;;;5072122;28;20040;-60
2023/09/17 08:04:24;;;;;;;37.90;30.55;;;;;;;;;;5072188;28;20402;-60
2023/09/17 08:06:50;;;;;;;38.65;32.20;;;;;;;;;;5072341;28;20052;-60
2023/09/17 08:09:17;;;;;;;36.60;31.17;;;;;;;;;;5072020;28;20036;-60
2023/09/17 08:11:43;;;;;;;39.38;32.13;;;;;;;;;;5072678;28;20484;-60
2023/09/17 08:14:10;;;;;;;37.45;31.80;;;;;;;;;;5071778;28;20045;-60
2023/09/17 08:16:37;;;;;;;37.40;32.08;;;;;;;;;;5071990;28;20044;-60
2023/09/17 08:19:03;;;;;;;41.95;33.75;;;;;;;;;;5072482;28;20055;-60
2023/09/17 08:21:29;;;;;;;37.38;31.00;;;;;;;;;;5071695;28;20057;-60
2023/09/17 08:23:58;;;;;;;41.60;33.10;;;;;;;;;;5072457;28;20136;-60
2023/09/17 08:26:28;;;;;;;40.58;33.65;;;;;;;;;;5072461;28;20113;-60
2023/09/17 08:29:00;;;;;;;41.67;34.80;;;;;;;;;;5071517;28;20090;-60
2023/09/17 08:31:28;;;;;;;43.83;32.95;;;;;;;;;;5072497;28;20120;-60
2023/09/17 08:33:54;;;;;;;42.90;32.65;;;;;;;;;;5072154;28;20485;-60
2023/09/17 08:36:23;;;;;;;44.42;34.13;;;;;;;;;;5071526;28;20083;-60
2023/09/17 08:38:50;;;;;;;42.33;33.65;;;;;;;;;;5070776;28;20550;-60
2023/09/17 08:41:18;;;;;;;42.63;34.35;;;;;;;;;;5072079;28;20080;-60
2023/09/17 08:43:45;;;;;;;41.22;33.85;;;;;;;;;;5070755;28;20378;-60
2023/09/17 08:46:12;;;;;;;42.92;34.25;;;;;;;;;;5071996;28;20048;-60
2023/09/17 08:48:39;;;;;;;44.10;35.10;;;;;;;;;;5071794;28;20056;-60
2023/09/17 08:51:08;;;;;;;40.50;35.42;;;;;;;;;;5071103;28;20382;-60
2023/09/17 08:53:38;;;;;;;46.90;35.00;;;;;;;;;;5071827;28;20471;-60
2023/09/17 08:56:06;;;;;;;45.42;35.55;;;;;;;;;;5072136;28;20044;-60
2023/09/17 08:58:38;;;;;;;43.67;34.05;;;;;;;;;;5070881;28;20488;-60
2023/09/17 09:01:07;;;;;;;46.47;34.90;;;;;;;;;;5071884;28;20064;-60
2023/09/17 09:03:35;;;;;;;42.00;32.22;;;;;;;;;;5070738;28;20048;-60
2023/09/17 09:06:03;;;;;;;44.28;33.58;;;;;;;;;;5071723;28;20395;-60
2023/09/17 09:08:30;;;;;;;40.38;32.30;;;;;;;;;;5071499;28;20044;-60
2023/09/17 09:10:57;;;;;;;39.63;32.45;;;;;;;;;;5071223;28;20483;-60
2023/09/17 09:13:23;;;;;;;38.65;30.63;;;;;;;;;;5071750;28;20113;-60
2023/09/17 09:15:50;;;;;;;39.88;32.53;;;;;;;;;;5070737;28;20056;-60
2023/09/17 09:18:16;;;;;;;43.50;32.95;;;;;;;;;;5068901;28;20051;-60
2023/09/17 09:20:42;;;;;;;38.38;32.17;;;;;;;;;;5071242;28;20043;-60
2023/09/17 09:23:08;;;;;;;41.67;33.00;;;;;;;;;;5071557;28;20048;-60
2023/09/17 09:25:35;;;;;;;46.55;33.45;;;;;;;;;;5070709;28;20036;-60
2023/09/17 09:28:07;;;;;;;47.22;32.05;;;;;;;;;;5071280;28;20097;-60
2023/09/17 09:30:33;;;;;;;44.20;33.15;;;;;;;;;;5069807;28;20388;-60
2023/09/17 09:32:59;;;;;;;41.97;33.33;;;;;;;;;;5068645;28;20460;-60
2023/09/17 09:35:25;;;;;;;46.58;35.40;;;;;;;;;;5070284;28;20044;-60
2023/09/17 09:37:53;;;;;;;52.40;37.78;;;;;;;;;;5071091;28;20078;-60
2023/09/17 09:40:21;;;;;;;52.85;37.58;;;;;;;;;;5070406;28;20080;-60
2023/09/17 09:42:48;;;;;;;49.35;36.80;;;;;;;;;;5070979;28;20469;-60
2023/09/17 09:45:15;;;;;;;52.85;37.92;;;;;;;;;;5070966;28;20051;-60
2023/09/17 09:47:47;;;;;;;52.92;39.40;;;;;;;;;;5069861;28;20053;-61
2023/09/17 09:50:23;;;;;;;54.53;39.40;;;;;;;;;;5070872;28;20086;-60
2023/09/17 09:52:49;;;;;;;53.58;39.88;;;;;;;;;;5068618;28;20083;-60
2023/09/17 09:55:15;;;;;;;54.75;40.03;;;;;;;;;;5070806;28;20063;-60
2023/09/17 09:57:42;;;;;;;49.95;39.22;;;;;;;;;;5070911;28;20044;-60
2023/09/17 10:00:12;;;;;;;51.55;38.58;;;;;;;;;;5069861;28;20089;-60
2023/09/17 10:02:39;;;;;;;55.55;40.20;;;;;;;;;;5070397;28;20071;-60
2023/09/17 10:05:07;;;;;;;56.22;40.72;;;;;;;;;;5070171;28;20094;-60
2023/09/17 10:07:34;;;;;;;56.20;40.38;;;;;;;;;;5069912;28;20487;-61
2023/09/17 10:10:00;;;;;;;57.03;40.60;;;;;;;;;;5070602;28;20056;-60
2023/09/17 10:12:27;;;;;;;57.38;40.47;;;;;;;;;;5070469;28;20043;-60
2023/09/17 10:14:53;;;;;;;56.45;40.67;;;;;;;;;;5069726;28;20403;-60
2023/09/17 10:17:20;;;;;;;51.15;38.22;;;;;;;;;;5070374;28;20048;-60
2023/09/17 10:19:47;;;;;;;52.97;38.28;;;;;;;;;;5070647;28;20071;-60
2023/09/17 10:22:15;;;;;;;56.38;39.30;;;;;;;;;;5068303;28;20425;-60
2023/09/17 10:24:42;;;;;;;56.72;39.70;;;;;;;;;;5070670;28;20463;-60
2023/09/17 10:27:08;;;;;;;48.95;36.95;;;;;;;;;;5070026;28;20041;-60
2023/09/17 10:29:35;;;;;;;51.38;34.08;;;;;;;;;;5069107;28;20045;-60
2023/09/17 10:32:03;;;;;;;29.60;22.60;;;;;;;;;;5070413;28;20599;-60
2023/09/17 10:34:31;;;;;;;28.33;23.92;;;;;;;;;;5070425;28;20043;-60
2023/09/17 10:36:58;;;;;;;29.00;23.42;;;;;;;;;;5069721;28;20107;-60
2023/09/17 10:39:27;;;;;;;30.67;27.02;;;;;;;;;;5070378;28;20039;-60
2023/09/17 10:41:55;;;;;;;34.55;27.15;;;;;;;;;;5069433;28;20093;-60
2023/09/17 10:44:23;;;;;;;30.80;25.38;;;;;;;;;;5070358;28;20044;-60
2023/09/17 10:46:50;;;;;;;32.72;26.80;;;;;;;;;;5070337;28;20047;-60
2023/09/17 10:49:17;;;;;;;29.73;26.05;;;;;;;;;;5069390;28;20045;-60
2023/09/17 10:51:44;;;;;;;29.40;25.50;;;;;;;;;;5070254;28;20036;-60
2023/09/17 10:54:11;;;;;;;32.38;24.90;;;;;;;;;;5070239;28;20036;-60
2023/09/17 10:56:42;;;;;;;29.08;25.52;;;;;;;;;;5067654;28;20048;-60
2023/09/17 10:59:10;;;;;;;28.23;24.25;;;;;;;;;;5070350;28;20041;-60
2023/09/17 11:01:37;;;;;;;28.45;22.65;;;;;;;;;;5069923;28;20056;-60
2023/09/17 11:04:06;;;;;;;23.45;20.30;;;;;;;;;;5068099;28;20036;-60
2023/09/17 11:06:34;;;;;;;23.27;19.45;;;;;;;;;;5070175;28;20050;-60
2023/09/17 11:09:01;;;;;;;23.13;18.40;;;;;;;;;;5068847;28;20053;-60
2023/09/17 11:11:29;;;;;;;21.42;18.48;;;;;;;;;;5069271;28;20250;-60
2023/09/17 11:13:56;;;;;;;20.33;16.50;;;;;;;;;;5069866;28;20055;-60
2023/09/17 11:16:24;;;;;;;17.90;15.43;;;;;;;;;;5070163;28;20467;-60
2023/09/17 11:19:18;;;;;;;18.48;15.75;;;;;;;;;;5069023;28;20090;-60
2023/09/17 11:21:48;;;;;;;18.33;14.88;;;;;;;;;;5069700;28;20100;-60
2023/09/17 11:24:17;;;;;;;19.98;16.38;;;;;;;;;;5069254;28;20056;-60
2023/09/17 11:26:45;;;;;;;19.38;16.38;;;;;;;;;;5070716;28;20040;-60
2023/09/17 11:29:11;;;;;;;16.40;14.63;;;;;;;;;;5070084;28;20055;-60
2023/09/17 11:31:53;;;;;;;19.42;16.88;;;;;;;;;;5069167;28;20056;-60
2023/09/17 11:34:21;;;;;;;22.05;16.50;;;;;;;;;;5069673;28;20056;-60
2023/09/17 11:36:47;;;;;;;21.20;17.42;;;;;;;;;;5069788;28;20086;-60
2023/09/17 11:39:20;;;;;;;23.10;19.10;;;;;;;;;;5069607;28;20048;-60
2023/09/17 11:41:51;;;;;;;20.75;17.70;;;;;;;;;;5073319;28;20056;-60
2023/09/17 11:44:17;;;;;;;21.02;18.70;;;;;;;;;;5073254;28;20396;-60
2023/09/17 11:46:44;;;;;;;20.33;17.75;;;;;;;;;;5072582;28;20115;-60
2023/09/17 11:49:11;;;;;;;24.73;21.13;;;;;;;;;;5073093;28;20059;-60
2023/09/17 11:51:44;;;;;;;24.30;20.45;;;;;;;;;;5073101;28;20052;-60
2023/09/17 11:54:15;;;;;;;26.10;22.42;;;;;;;;;;5072525;28;20131;-60
2023/09/17 11:56:50;;;;;;;27.33;21.75;;;;;;;;;;5071033;28;20477;-60
2023/09/17 11:59:18;;;;;;;30.20;22.38;;;;;;;;;;5070009;28;20496;-60
2023/09/17 12:01:48;;;;;;;27.73;23.85;;;;;;;;;;5072295;28;20413;-60
2023/09/17 12:04:15;;;;;;;34.25;25.55;;;;;;;;;;5072936;28;20449;-60
2023/09/17 12:06:42;;;;;;;31.13;25.77;;;;;;;;;;5072505;28;20071;-60
2023/09/17 12:09:24;;;;;;;29.33;26.25;;;;;;;;;;5072773;28;20558;-60
2023/09/17 12:11:51;;;;;;;36.15;29.90;;;;;;;;;;5072630;28;20096;-60
2023/09/17 12:14:19;;;;;;;32.05;28.08;;;;;;;;;;5072145;28;20037;-60
2023/09/17 12:16:48;;;;;;;33.53;28.00;;;;;;;;;;5072782;28;20049;-60
2023/09/17 12:19:14;;;;;;;34.28;28.38;;;;;;;;;;5072533;28;20072;-60
2023/09/17 12:21:40;;;;;;;33.15;28.67;;;;;;;;;;5071796;28;20041;-60
2023/09/17 12:24:10;;;;;;;42.60;32.38;;;;;;;;;;5072436;28;20044;-60
2023/09/17 12:26:54;;;;;;;38.42;32.40;;;;;;;;;;5072752;28;20048;-60
2023/09/17 12:29:21;;;;;;;38.08;32.08;;;;;;;;;;5071279;28;20082;-60
2023/09/17 12:31:49;;;;;;;31.38;27.40;;;;;;;;;;5072474;28;20079;-60
2023/09/17 12:34:16;;;;;;;34.40;28.80;;;;;;;;;;5072315;28;20525;-60
2023/09/17 12:36:43;;;;;;;30.75;27.40;;;;;;;;;;5071573;28;20044;-60
2023/09/17 12:39:09;;;;;;;34.72;28.02;;;;;;;;;;5072289;28;20056;-60
2023/09/17 12:41:35;;;;;;;33.25;28.17;;;;;;;;;;5071538;28;20045;-60
2023/09/17 12:44:01;;;;;;;31.55;26.98;;;;;;;;;;5072589;28;20503;-60
2023/09/17 12:46:28;;;;;;;35.60;28.63;;;;;;;;;;5071934;28;20039;-60
2023/09/17 12:48:54;;;;;;;32.85;28.40;;;;;;;;;;5071094;28;20080;-60
2023/09/17 12:51:21;;;;;;;30.85;26.38;;;;;;;;;;5071266;28;20058;-60
2023/09/17 12:53:47;;;;;;;35.35;27.77;;;;;;;;;;5072222;28;20474;-60
2023/09/17 12:56:13;;;;;;;28.88;23.63;;;;;;;;;;5071208;28;20040;-60
2023/09/17 12:58:40;;;;;;;27.98;24.38;;;;;;;;;;5071435;28;20039;-60
2023/09/17 13:01:13;;;;;;;28.38;23.77;;;;;;;;;;5071561;28;20436;-60
2023/09/17 13:03:51;;;;;;;26.02;22.00;;;;;;;;;;5071172;28;20044;-60
2023/09/17 13:06:20;;;;;;;24.17;20.67;;;;;;;;;;5070879;28;20083;-60
2023/09/17 13:08:50;;;;;;;27.63;22.10;;;;;;;;;;5071530;28;20045;-61
2023/09/17 13:11:17;;;;;;;22.73;20.33;;;;;;;;;;5070869;28;20056;-60
2023/09/17 13:13:45;;;;;;;25.35;22.08;;;;;;;;;;5071449;28;20041;-60
2023/09/17 13:16:11;;;;;;;26.48;21.58;;;;;;;;;;5071821;28;20067;-60
2023/09/17 13:18:37;;;;;;;25.00;21.60;;;;;;;;;;5070513;28;20048;-60
2023/09/17 13:21:03;;;;;;;21.75;19.42;;;;;;;;;;5070281;28;20489;-61
2023/09/17 13:23:30;;;;;;;24.17;21.33;;;;;;;;;;5071516;28;20036;-60
2023/09/17 13:25:56;;;;;;;23.48;20.85;;;;;;;;;;5070560;28;20036;-60
2023/09/17 13:28:23;;;;;;;23.52;20.75;;;;;;;;;;5071793;28;20480;-61
2023/09/17 13:30:51;;;;;;;28.02;22.13;;;;;;;;;;5067603;28;20102;-60
2023/09/17 13:33:18;;;;;;;27.75;22.23;;;;;;;;;;5070876;28;20075;-60
2023/09/17 13:35:51;;;;;;;24.67;20.50;;;;;;;;;;5071204;28;20109;-60
2023/09/17 13:38:18;;;;;;;24.20;21.42;;;;;;;;;;5068417;28;20118;-60
2023/09/17 13:40:47;;;;;;;26.45;20.52;;;;;;;;;;5070753;28;20066;-60
2023/09/17 13:43:14;;;;;;;22.52;19.77;;;;;;;;;;5071254;28;20473;-60
2023/09/17 13:45:57;;;;;;;23.38;19.67;;;;;;;;;;5070470;28;20392;-60
2023/09/17 13:48:23;;;;;;;;;;;;;;;;;;5071234;28;20101;-61
2023/09/17 13:50:50;;;;;;;25.55;20.55;;;;;;;;;;5071033;28;19931;-60
2023/09/17 13:53:16;;;;;;;22.30;19.45;;;;;;;;;;5069939;28;20044;-60
2023/09/17 13:55:42;;;;;;;23.73;19.10;;;;;;;;;;5070994;28;20052;-60
2023/09/17 13:58:10;;;;;;;24.33;21.70;;;;;;;;;;5070733;28;20040;-60
2023/09/17 14:00:36;;;;;;;24.67;20.30;;;;;;;;;;5069952;28;20404;-60
2023/09/17 14:03:03;;;;;;;23.10;20.40;;;;;;;;;;5070783;28;20041;-60
2023/09/17 14:05:32;;;;;;;24.40;19.20;;;;;;;;;;5070767;28;20480;-60
2023/09/17 14:07:59;;;;;;;23.55;20.73;;;;;;;;;;5069828;28;20044;-60
2023/09/17 14:10:25;;;;;;;24.17;19.58;;;;;;;;;;5070823;28;20032;-60
2023/09/17 14:12:52;;;;;;;26.27;20.65;;;;;;;;;;5069908;28;20063;-60
2023/09/17 14:15:18;;;;;;;27.80;21.38;;;;;;;;;;5070705;28;20183;-60
2023/09/17 14:17:45;;;;;;;24.50;21.55;;;;;;;;;;5070767;28;20041;-60
2023/09/17 14:20:11;;;;;;;25.10;21.50;;;;;;;;;;5069847;28;20048;-60